sensor_id;sensor_type;location;lat;lon;timestamp;P1;durP1;ratioP1;P2;durP2;ratioP2
489;SDS011;231;48.120;11.576;2023-04-15T04:25:51;8.90;;;6.90;;
489;SDS011;231;48.120;11.576;2023-04-15T04:29:23;8.30;;;6.20;;
489;SDS011;231;48.120;11.576;2023-04-15T04:46:03;12.00;;;6.70;;
489;SDS011;231;48.120;11.576;2023-04-15T04:49:12;5.97;;;5.67;;
489;SDS011;231;48.120;11.576;2023-04-15T04:52:07;11.03;;;5.87;;
489;SDS011;231;48.120;11.576;2023-04-15T04:55:38;7.93;;;6.00;;
489;SDS011;231;48.120;11.576;2023-04-15T05:05:00;9.93;;;6.33;;
489;SDS011;231;48.120;11.576;2023-04-15T05:07:38;8.20;;;5.73;;
489;SDS011;231;48.120;11.576;2023-04-15T05:10:13;6.73;;;6.20;;
489;SDS011;231;48.120;11.576;2023-04-15T05:12:44;12.60;;;5.23;;
489;SDS011;231;48.120;11.576;2023-04-15T05:15:21;5.90;;;5.60;;
489;SDS011;231;48.120;11.576;2023-04-15T05:17:50;5.33;;;5.03;;
489;SDS011;231;48.120;11.576;2023-04-15T05:20:18;8.30;;;5.63;;
489;SDS011;231;48.120;11.576;2023-04-15T05:22:46;6.17;;;4.70;;
489;SDS011;231;48.120;11.576;2023-04-15T05:25:13;7.73;;;5.27;;
489;SDS011;231;48.120;11.576;2023-04-15T05:27:40;5.60;;;4.70;;
489;SDS011;231;48.120;11.576;2023-04-15T05:30:09;8.47;;;5.40;;
489;SDS011;231;48.120;11.576;2023-04-15T05:32:36;9.17;;;4.10;;
489;SDS011;231;48.120;11.576;2023-04-15T05:35:05;5.17;;;4.13;;
489;SDS011;231;48.120;11.576;2023-04-15T05:37:40;6.43;;;4.57;;
489;SDS011;231;48.120;11.576;2023-04-15T05:47:04;4.40;;;3.97;;
489;SDS011;231;48.120;11.576;2023-04-15T06:45:15;2.27;;;2.07;;
489;SDS011;231;48.120;11.576;2023-04-15T06:47:43;2.43;;;2.17;;
489;SDS011;231;48.120;11.576;2023-04-15T06:50:14;2.37;;;2.17;;
489;SDS011;231;48.120;11.576;2023-04-15T06:52:49;3.03;;;2.10;;
489;SDS011;231;48.120;11.576;2023-04-15T06:55:22;4.60;;;2.43;;
489;SDS011;231;48.120;11.576;2023-04-15T06:57:50;9.00;;;2.27;;
489;SDS011;231;48.120;11.576;2023-04-15T07:00:28;2.60;;;2.10;;
489;SDS011;231;48.120;11.576;2023-04-15T07:03:21;4.03;;;1.63;;
489;SDS011;231;48.120;11.576;2023-04-15T07:06:00;3.63;;;2.03;;
489;SDS011;231;48.120;11.576;2023-04-15T07:08:39;3.37;;;2.10;;
489;SDS011;231;48.120;11.576;2023-04-15T07:11:15;1.90;;;1.80;;
489;SDS011;231;48.120;11.576;2023-04-15T07:13:53;1.87;;;1.80;;
489;SDS011;231;48.120;11.576;2023-04-15T07:16:45;2.60;;;2.50;;
489;SDS011;231;48.120;11.576;2023-04-15T07:19:12;1.53;;;1.33;;
489;SDS011;231;48.120;11.576;2023-04-15T07:21:41;2.67;;;1.97;;
489;SDS011;231;48.120;11.576;2023-04-15T07:24:26;6.17;;;2.13;;
489;SDS011;231;48.120;11.576;2023-04-15T07:30:12;2.67;;;1.50;;
489;SDS011;231;48.120;11.576;2023-04-15T07:43:37;3.73;;;2.07;;
489;SDS011;231;48.120;11.576;2023-04-15T07:46:28;2.30;;;1.30;;
489;SDS011;231;48.120;11.576;2023-04-15T07:49:12;4.30;;;2.03;;
489;SDS011;231;48.120;11.576;2023-04-15T07:51:46;2.10;;;1.60;;
489;SDS011;231;48.120;11.576;2023-04-15T08:18:59;3.97;;;2.27;;
489;SDS011;231;48.120;11.576;2023-04-15T08:21:46;2.80;;;1.63;;
489;SDS011;231;48.120;11.576;2023-04-15T08:24:16;2.40;;;1.90;;
489;SDS011;231;48.120;11.576;2023-04-15T08:26:43;4.07;;;1.87;;
489;SDS011;231;48.120;11.576;2023-04-15T08:29:11;2.67;;;2.30;;
489;SDS011;231;48.120;11.576;2023-04-15T08:31:39;4.50;;;2.70;;
489;SDS011;231;48.120;11.576;2023-04-15T08:34:11;2.87;;;1.80;;
489;SDS011;231;48.120;11.576;2023-04-15T08:36:46;4.70;;;2.93;;
489;SDS011;231;48.120;11.576;2023-04-15T08:39:17;4.03;;;2.30;;
489;SDS011;231;48.120;11.576;2023-04-15T08:41:51;2.07;;;1.93;;
489;SDS011;231;48.120;11.576;2023-04-15T08:44:24;3.10;;;2.47;;
489;SDS011;231;48.120;11.576;2023-04-15T08:46:55;5.50;;;2.20;;
489;SDS011;231;48.120;11.576;2023-04-15T08:49:23;5.10;;;2.13;;
489;SDS011;231;48.120;11.576;2023-04-15T08:51:53;2.37;;;2.00;;
489;SDS011;231;48.120;11.576;2023-04-15T08:54:21;11.60;;;2.30;;
489;SDS011;231;48.120;11.576;2023-04-15T08:56:49;2.60;;;2.27;;
489;SDS011;231;48.120;11.576;2023-04-15T08:59:16;3.13;;;2.03;;
489;SDS011;231;48.120;11.576;2023-04-15T09:01:43;2.07;;;1.80;;
489;SDS011;231;48.120;11.576;2023-04-15T09:04:11;3.00;;;2.00;;
489;SDS011;231;48.120;11.576;2023-04-15T09:06:39;2.60;;;2.17;;
489;SDS011;231;48.120;11.576;2023-04-15T09:09:06;4.50;;;2.07;;
489;SDS011;231;48.120;11.576;2023-04-15T09:11:33;2.90;;;2.50;;
489;SDS011;231;48.120;11.576;2023-04-15T09:14:00;2.50;;;2.17;;
489;SDS011;231;48.120;11.576;2023-04-15T09:16:27;2.77;;;2.20;;
489;SDS011;231;48.120;11.576;2023-04-15T09:18:54;3.57;;;2.53;;
489;SDS011;231;48.120;11.576;2023-04-15T09:21:21;3.63;;;2.33;;
489;SDS011;231;48.120;11.576;2023-04-15T09:23:54;3.00;;;2.00;;
489;SDS011;231;48.120;11.576;2023-04-15T09:26:29;3.20;;;3.00;;
489;SDS011;231;48.120;11.576;2023-04-15T09:29:01;2.90;;;2.80;;
489;SDS011;231;48.120;11.576;2023-04-15T09:31:30;2.87;;;2.40;;
489;SDS011;231;48.120;11.576;2023-04-15T09:33:57;2.33;;;2.13;;
489;SDS011;231;48.120;11.576;2023-04-15T09:36:24;3.40;;;2.53;;
489;SDS011;231;48.120;11.576;2023-04-15T09:38:55;2.70;;;2.50;;
489;SDS011;231;48.120;11.576;2023-04-15T09:41:23;5.53;;;2.67;;
489;SDS011;231;48.120;11.576;2023-04-15T09:43:50;3.00;;;2.80;;
489;SDS011;231;48.120;11.576;2023-04-15T09:46:18;3.53;;;3.23;;
489;SDS011;231;48.120;11.576;2023-04-15T09:48:45;4.80;;;4.20;;
489;SDS011;231;48.120;11.576;2023-04-15T09:51:12;4.13;;;3.50;;
489;SDS011;231;48.120;11.576;2023-04-15T09:53:39;7.40;;;2.90;;
489;SDS011;231;48.120;11.576;2023-04-15T09:56:08;3.57;;;3.20;;
489;SDS011;231;48.120;11.576;2023-04-15T09:58:35;2.83;;;2.63;;
489;SDS011;231;48.120;11.576;2023-04-15T10:01:04;3.30;;;3.10;;
489;SDS011;231;48.120;11.576;2023-04-15T10:03:33;3.37;;;3.17;;
489;SDS011;231;48.120;11.576;2023-04-15T10:06:01;4.03;;;3.53;;
489;SDS011;231;48.120;11.576;2023-04-15T10:08:30;2.70;;;2.50;;
489;SDS011;231;48.120;11.576;2023-04-15T10:10:59;5.27;;;3.30;;
489;SDS011;231;48.120;11.576;2023-04-15T10:13:30;3.67;;;3.47;;
489;SDS011;231;48.120;11.576;2023-04-15T10:16:01;4.03;;;3.40;;
489;SDS011;231;48.120;11.576;2023-04-15T10:18:31;3.83;;;3.50;;
489;SDS011;231;48.120;11.576;2023-04-15T10:21:03;5.50;;;3.60;;
489;SDS011;231;48.120;11.576;2023-04-15T10:23:31;5.30;;;3.30;;
489;SDS011;231;48.120;11.576;2023-04-15T10:25:59;8.37;;;4.70;;
489;SDS011;231;48.120;11.576;2023-04-15T10:28:26;5.10;;;4.80;;
489;SDS011;231;48.120;11.576;2023-04-15T10:30:55;4.33;;;3.23;;
489;SDS011;231;48.120;11.576;2023-04-15T10:33:25;6.90;;;4.80;;
489;SDS011;231;48.120;11.576;2023-04-15T10:35:54;3.40;;;3.20;;
489;SDS011;231;48.120;11.576;2023-04-15T10:38:31;4.70;;;3.77;;
489;SDS011;231;48.120;11.576;2023-04-15T10:41:16;4.00;;;3.63;;
489;SDS011;231;48.120;11.576;2023-04-15T10:43:59;4.23;;;3.97;;
489;SDS011;231;48.120;11.576;2023-04-15T10:46:44;6.33;;;3.50;;
489;SDS011;231;48.120;11.576;2023-04-15T10:49:13;6.10;;;4.57;;
489;SDS011;231;48.120;11.576;2023-04-15T10:51:41;4.30;;;4.00;;
489;SDS011;231;48.120;11.576;2023-04-15T10:54:12;4.23;;;3.97;;
489;SDS011;231;48.120;11.576;2023-04-15T10:56:41;4.40;;;4.10;;
489;SDS011;231;48.120;11.576;2023-04-15T10:59:08;4.37;;;4.10;;
489;SDS011;231;48.120;11.576;2023-04-15T11:01:54;4.07;;;3.87;;
489;SDS011;231;48.120;11.576;2023-04-15T11:07:33;4.27;;;4.00;;
489;SDS011;231;48.120;11.576;2023-04-15T11:10:02;3.40;;;3.23;;
489;SDS011;231;48.120;11.576;2023-04-15T11:12:34;3.97;;;3.60;;
489;SDS011;231;48.120;11.576;2023-04-15T11:17:54;4.50;;;4.20;;
489;SDS011;231;48.120;11.576;2023-04-15T11:20:22;4.63;;;3.97;;
489;SDS011;231;48.120;11.576;2023-04-15T11:22:53;5.90;;;3.73;;
489;SDS011;231;48.120;11.576;2023-04-15T11:25:29;3.90;;;3.70;;
489;SDS011;231;48.120;11.576;2023-04-15T11:28:03;6.00;;;4.57;;
489;SDS011;231;48.120;11.576;2023-04-15T11:30:53;5.40;;;4.50;;
489;SDS011;231;48.120;11.576;2023-04-15T11:33:28;4.57;;;4.27;;
489;SDS011;231;48.120;11.576;2023-04-15T11:35:55;6.40;;;4.53;;
489;SDS011;231;48.120;11.576;2023-04-15T11:38:22;6.57;;;5.27;;
489;SDS011;231;48.120;11.576;2023-04-15T11:40:49;6.63;;;5.57;;
489;SDS011;231;48.120;11.576;2023-04-15T11:43:18;5.70;;;5.40;;
489;SDS011;231;48.120;11.576;2023-04-15T11:46:19;5.63;;;5.33;;
489;SDS011;231;48.120;11.576;2023-04-15T11:48:57;5.90;;;5.60;;
489;SDS011;231;48.120;11.576;2023-04-15T11:51:31;5.80;;;5.50;;
489;SDS011;231;48.120;11.576;2023-04-15T11:54:03;6.10;;;5.80;;
489;SDS011;231;48.120;11.576;2023-04-15T11:56:30;10.07;;;5.87;;
489;SDS011;231;48.120;11.576;2023-04-15T11:58:57;6.40;;;5.70;;
489;SDS011;231;48.120;11.576;2023-04-15T12:01:31;6.13;;;5.90;;
489;SDS011;231;48.120;11.576;2023-04-15T12:04:00;6.87;;;5.80;;
489;SDS011;231;48.120;11.576;2023-04-15T12:06:43;6.27;;;5.93;;
489;SDS011;231;48.120;11.576;2023-04-15T12:09:10;7.67;;;7.27;;
489;SDS011;231;48.120;11.576;2023-04-15T12:11:39;6.50;;;6.10;;
489;SDS011;231;48.120;11.576;2023-04-15T12:14:08;7.23;;;6.83;;
489;SDS011;231;48.120;11.576;2023-04-15T12:16:37;7.10;;;5.90;;
489;SDS011;231;48.120;11.576;2023-04-15T12:19:08;5.33;;;5.03;;
489;SDS011;231;48.120;11.576;2023-04-15T12:21:37;6.07;;;5.77;;
489;SDS011;231;48.120;11.576;2023-04-15T12:24:05;5.87;;;5.57;;
489;SDS011;231;48.120;11.576;2023-04-15T12:26:34;5.00;;;4.70;;
489;SDS011;231;48.120;11.576;2023-04-15T12:29:03;5.07;;;4.77;;
489;SDS011;231;48.120;11.576;2023-04-15T12:31:32;5.00;;;4.70;;
489;SDS011;231;48.120;11.576;2023-04-15T12:33:59;5.67;;;4.27;;
489;SDS011;231;48.120;11.576;2023-04-15T12:36:29;5.10;;;4.80;;
489;SDS011;231;48.120;11.576;2023-04-15T12:39:00;5.20;;;4.90;;
489;SDS011;231;48.120;11.576;2023-04-15T12:41:27;5.70;;;4.50;;
489;SDS011;231;48.120;11.576;2023-04-15T12:43:54;5.73;;;5.33;;
489;SDS011;231;48.120;11.576;2023-04-15T12:46:21;6.70;;;4.43;;
489;SDS011;231;48.120;11.576;2023-04-15T12:48:48;5.33;;;4.90;;
489;SDS011;231;48.120;11.576;2023-04-15T12:51:16;4.90;;;4.10;;
489;SDS011;231;48.120;11.576;2023-04-15T12:53:44;5.30;;;4.10;;
489;SDS011;231;48.120;11.576;2023-04-15T12:56:11;4.13;;;3.57;;
489;SDS011;231;48.120;11.576;2023-04-15T12:58:38;6.40;;;4.10;;
489;SDS011;231;48.120;11.576;2023-04-15T13:01:05;4.37;;;3.87;;
489;SDS011;231;48.120;11.576;2023-04-15T13:03:32;4.00;;;3.80;;
489;SDS011;231;48.120;11.576;2023-04-15T13:05:59;5.40;;;3.80;;
489;SDS011;231;48.120;11.576;2023-04-15T13:08:28;3.83;;;3.63;;
489;SDS011;231;48.120;11.576;2023-04-15T13:10:57;3.27;;;3.10;;
489;SDS011;231;48.120;11.576;2023-04-15T13:13:24;5.17;;;3.50;;
489;SDS011;231;48.120;11.576;2023-04-15T13:15:51;3.70;;;3.03;;
489;SDS011;231;48.120;11.576;2023-04-15T13:18:18;3.40;;;3.00;;
489;SDS011;231;48.120;11.576;2023-04-15T13:20:44;4.23;;;3.40;;
489;SDS011;231;48.120;11.576;2023-04-15T13:23:11;4.90;;;3.00;;
489;SDS011;231;48.120;11.576;2023-04-15T13:25:38;4.13;;;3.27;;
489;SDS011;231;48.120;11.576;2023-04-15T13:28:07;4.40;;;4.10;;
489;SDS011;231;48.120;11.576;2023-04-15T13:30:33;4.23;;;3.97;;
489;SDS011;231;48.120;11.576;2023-04-15T13:33:02;4.90;;;3.73;;
489;SDS011;231;48.120;11.576;2023-04-15T13:35:30;5.13;;;3.47;;
489;SDS011;231;48.120;11.576;2023-04-15T13:37:58;3.30;;;3.10;;
489;SDS011;231;48.120;11.576;2023-04-15T13:40:25;4.63;;;4.07;;
489;SDS011;231;48.120;11.576;2023-04-15T13:42:52;5.07;;;4.37;;
489;SDS011;231;48.120;11.576;2023-04-15T13:45:20;4.63;;;4.10;;
489;SDS011;231;48.120;11.576;2023-04-15T13:47:47;4.97;;;4.17;;
489;SDS011;231;48.120;11.576;2023-04-15T13:50:14;4.50;;;4.20;;
489;SDS011;231;48.120;11.576;2023-04-15T13:52:41;5.07;;;4.40;;
489;SDS011;231;48.120;11.576;2023-04-15T13:55:08;9.50;;;4.40;;
489;SDS011;231;48.120;11.576;2023-04-15T13:57:35;6.10;;;5.80;;
489;SDS011;231;48.120;11.576;2023-04-15T14:00:02;5.30;;;5.00;;
489;SDS011;231;48.120;11.576;2023-04-15T14:02:31;7.10;;;5.53;;
489;SDS011;231;48.120;11.576;2023-04-15T14:04:58;7.43;;;7.03;;
489;SDS011;231;48.120;11.576;2023-04-15T14:07:25;5.70;;;5.40;;
489;SDS011;231;48.120;11.576;2023-04-15T14:09:53;6.47;;;6.07;;
489;SDS011;231;48.120;11.576;2023-04-15T14:12:20;5.60;;;4.93;;
489;SDS011;231;48.120;11.576;2023-04-15T14:14:47;5.50;;;5.20;;
489;SDS011;231;48.120;11.576;2023-04-15T14:17:14;4.53;;;4.23;;
489;SDS011;231;48.120;11.576;2023-04-15T14:19:42;5.93;;;4.40;;
489;SDS011;231;48.120;11.576;2023-04-15T14:22:09;4.57;;;4.20;;
489;SDS011;231;48.120;11.576;2023-04-15T14:24:36;4.67;;;4.37;;
489;SDS011;231;48.120;11.576;2023-04-15T14:27:03;5.27;;;3.63;;
489;SDS011;231;48.120;11.576;2023-04-15T14:29:30;5.57;;;4.20;;
489;SDS011;231;48.120;11.576;2023-04-15T14:31:57;3.90;;;3.30;;
489;SDS011;231;48.120;11.576;2023-04-15T14:34:24;3.20;;;2.93;;
489;SDS011;231;48.120;11.576;2023-04-15T14:36:52;3.33;;;3.13;;
489;SDS011;231;48.120;11.576;2023-04-15T14:39:19;4.10;;;3.10;;
489;SDS011;231;48.120;11.576;2023-04-15T14:41:46;6.30;;;3.80;;
489;SDS011;231;48.120;11.576;2023-04-15T14:44:13;5.77;;;3.70;;
489;SDS011;231;48.120;11.576;2023-04-15T14:46:40;4.37;;;3.47;;
489;SDS011;231;48.120;11.576;2023-04-15T14:49:07;3.70;;;3.50;;
489;SDS011;231;48.120;11.576;2023-04-15T14:51:34;6.27;;;3.57;;
489;SDS011;231;48.120;11.576;2023-04-15T14:54:03;7.70;;;3.10;;
489;SDS011;231;48.120;11.576;2023-04-15T14:56:29;4.00;;;3.00;;
489;SDS011;231;48.120;11.576;2023-04-15T14:58:56;4.57;;;3.87;;
489;SDS011;231;48.120;11.576;2023-04-15T15:01:23;3.43;;;3.27;;
489;SDS011;231;48.120;11.576;2023-04-15T15:03:50;5.03;;;4.37;;
489;SDS011;231;48.120;11.576;2023-04-15T15:06:19;4.97;;;4.33;;
489;SDS011;231;48.120;11.576;2023-04-15T15:08:46;3.57;;;3.20;;
489;SDS011;231;48.120;11.576;2023-04-15T15:11:15;7.20;;;3.90;;
489;SDS011;231;48.120;11.576;2023-04-15T15:13:42;5.23;;;4.40;;
489;SDS011;231;48.120;11.576;2023-04-15T15:16:08;6.47;;;5.30;;
489;SDS011;231;48.120;11.576;2023-04-15T15:18:35;5.63;;;5.33;;
489;SDS011;231;48.120;11.576;2023-04-15T15:21:02;4.83;;;4.53;;
489;SDS011;231;48.120;11.576;2023-04-15T15:23:29;5.80;;;5.50;;
489;SDS011;231;48.120;11.576;2023-04-15T15:25:56;6.30;;;5.50;;
489;SDS011;231;48.120;11.576;2023-04-15T15:28:25;6.40;;;6.00;;
489;SDS011;231;48.120;11.576;2023-04-15T15:30:52;5.87;;;5.63;;
489;SDS011;231;48.120;11.576;2023-04-15T15:33:19;6.90;;;6.50;;
489;SDS011;231;48.120;11.576;2023-04-15T15:35:46;6.47;;;6.10;;
489;SDS011;231;48.120;11.576;2023-04-15T15:38:16;6.07;;;5.77;;
489;SDS011;231;48.120;11.576;2023-04-15T15:40:43;8.23;;;5.43;;
489;SDS011;231;48.120;11.576;2023-04-15T15:43:28;7.20;;;6.80;;
489;SDS011;231;48.120;11.576;2023-04-15T15:45:55;9.47;;;8.73;;
489;SDS011;231;48.120;11.576;2023-04-15T15:48:24;7.47;;;6.53;;
489;SDS011;231;48.120;11.576;2023-04-15T15:51:01;8.57;;;8.10;;
489;SDS011;231;48.120;11.576;2023-04-15T22:46:05;5.50;;;5.00;;
489;SDS011;231;48.120;11.576;2023-04-15T22:48:32;5.30;;;5.00;;
489;SDS011;231;48.120;11.576;2023-04-15T22:50:59;3.80;;;3.60;;
489;SDS011;231;48.120;11.576;2023-04-15T22:53:27;3.70;;;3.50;;
489;SDS011;231;48.120;11.576;2023-04-15T22:55:54;3.73;;;3.57;;
489;SDS011;231;48.120;11.576;2023-04-15T22:58:21;3.40;;;3.20;;
489;SDS011;231;48.120;11.576;2023-04-15T23:00:48;4.83;;;4.53;;
489;SDS011;231;48.120;11.576;2023-04-15T23:03:17;5.00;;;4.70;;
489;SDS011;231;48.120;11.576;2023-04-15T23:05:44;5.53;;;5.23;;
489;SDS011;231;48.120;11.576;2023-04-15T23:08:10;5.90;;;5.60;;
489;SDS011;231;48.120;11.576;2023-04-15T23:10:38;7.10;;;6.70;;
489;SDS011;231;48.120;11.576;2023-04-15T23:13:05;7.90;;;7.50;;
489;SDS011;231;48.120;11.576;2023-04-15T23:15:32;7.60;;;7.10;;
489;SDS011;231;48.120;11.576;2023-04-15T23:17:59;7.10;;;6.70;;
489;SDS011;231;48.120;11.576;2023-04-15T23:20:36;7.27;;;6.87;;
489;SDS011;231;48.120;11.576;2023-04-15T23:23:03;7.40;;;7.00;;
489;SDS011;231;48.120;11.576;2023-04-15T23:25:30;6.80;;;6.40;;
489;SDS011;231;48.120;11.576;2023-04-15T23:27:57;7.53;;;7.13;;
489;SDS011;231;48.120;11.576;2023-04-15T23:30:24;6.70;;;6.30;;
489;SDS011;231;48.120;11.576;2023-04-15T23:32:50;7.07;;;6.67;;
489;SDS011;231;48.120;11.576;2023-04-15T23:35:23;7.10;;;6.70;;
489;SDS011;231;48.120;11.576;2023-04-15T23:37:54;6.70;;;6.30;;
489;SDS011;231;48.120;11.576;2023-04-15T23:40:23;6.80;;;6.40;;
489;SDS011;231;48.120;11.576;2023-04-15T23:42:51;6.73;;;6.33;;
489;SDS011;231;48.120;11.576;2023-04-15T23:45:18;7.13;;;6.73;;
489;SDS011;231;48.120;11.576;2023-04-15T23:47:46;7.50;;;7.10;;
489;SDS011;231;48.120;11.576;2023-04-15T23:50:13;6.63;;;6.23;;
489;SDS011;231;48.120;11.576;2023-04-15T23:52:40;7.80;;;7.33;;
489;SDS011;231;48.120;11.576;2023-04-15T23:55:11;7.80;;;7.40;;
489;SDS011;231;48.120;11.576;2023-04-15T23:57:39;7.63;;;7.23;;
